Time;durP1;ratioP1;P1;durP2;ratioP2;P2;SDS_P1;SDS_P2;PMS_P1;PMS_P2;Temp;Humidity;BMP_temperature;BMP_pressure;BME280_temperature;BME280_humidity;BME280_pressure;Samples;Min_cycle;Max_cycle;Signal;HPM_P1;HPM_P2
2022/06/06 00:01:19;;;;;;;5.40;5.00;;;;;;;16.51;75.61;100534.50;1796600;78;21045;-73
2022/06/06 00:03:46;;;;;;;6.83;6.22;;;;;;;16.49;75.80;100531.21;1794635;78;21361;-74
2022/06/06 00:06:18;;;;;;;7.28;6.67;;;;;;;16.49;76.10;100535.25;1812163;77;21026;-74
2022/06/06 00:08:47;;;;;;;7.90;5.90;;;;;;;16.47;76.28;100536.52;1796312;78;21057;-73
2022/06/06 00:11:14;;;;;;;7.17;6.17;;;;;;;16.43;76.56;100536.14;1796481;78;20978;-73
2022/06/06 00:13:45;;;;;;;5.90;5.47;;;;;;;16.39;76.65;100538.98;1797770;78;21025;-73
2022/06/06 00:16:12;;;;;;;5.15;4.75;;;;;;;16.40;76.92;100531.20;1790931;78;21092;-74
2022/06/06 00:18:39;;;;;;;5.10;4.80;;;;;;;16.40;77.21;100539.27;1797660;78;20998;-73
2022/06/06 00:21:08;;;;;;;;;;;;;;;16.40;77.50;100540.61;1785814;78;21224;-73
2022/06/06 00:23:37;;;;;;;6.45;5.87;;;;;;;16.39;77.67;100538.14;1811063;78;20179;-73
2022/06/06 00:26:07;;;;;;;4.92;4.53;;;;;;;16.30;78.04;100537.09;1810945;77;21017;-73
2022/06/06 00:28:35;;;;;;;5.80;5.37;;;;;;;16.29;78.39;100533.27;1814763;77;20975;-74
2022/06/06 00:36:33;;;;;;;4.47;4.12;;;;;;;16.23;79.54;100534.98;1823977;77;21048;-73
2022/06/06 00:39:01;;;;;;;5.65;5.10;;;;;;;16.22;79.50;100532.00;1816995;77;20989;-73
2022/06/06 00:41:28;;;;;;;5.40;4.90;;;;;;;16.22;79.09;100531.16;1812123;77;21093;-73
2022/06/06 00:44:17;;;;;;;4.83;4.55;;;;;;;16.22;78.89;100535.19;1822933;77;21541;-73
2022/06/06 00:46:51;;;;;;;4.33;4.12;;;;;;;16.21;78.50;100538.94;1808929;78;21026;-74
2022/06/06 00:49:23;;;;;;;4.58;4.25;;;;;;;16.15;78.21;100543.34;1815193;77;21195;-75
2022/06/06 00:51:50;;;;;;;5.70;4.45;;;;;;;16.15;77.65;100541.46;1824668;77;20990;-75
2022/06/06 00:54:17;;;;;;;4.45;4.15;;;;;;;16.18;77.02;100544.75;1825148;77;21009;-75
2022/06/06 00:56:55;;;;;;;4.12;3.87;;;;;;;16.21;76.97;100541.63;1826799;77;20978;-74
2022/06/06 00:59:27;;;;;;;4.58;4.35;;;;;;;16.20;76.73;100544.85;1828762;77;21033;-75
2022/06/06 01:01:55;;;;;;;5.60;5.22;;;;;;;16.20;77.04;100543.50;1796128;78;20998;-75
2022/06/06 01:04:25;;;;;;;5.00;4.60;;;;;;;16.19;77.14;100550.44;1794863;78;21076;-75
2022/06/06 01:06:53;;;;;;;5.65;5.05;;;;;;;16.14;77.40;100553.77;1798046;78;21060;-75
2022/06/06 01:09:23;;;;;;;5.25;4.70;;;;;;;16.09;77.82;100556.32;1789267;78;21101;-78
2022/06/06 01:12:00;;;;;;;4.12;3.92;;;;;;;16.05;77.98;100557.77;1800422;78;21116;-73
2022/06/06 01:14:34;;;;;;;4.45;4.25;;;;;;;16.01;77.63;100554.73;1800196;78;20979;-75
2022/06/06 01:17:29;;;;;;;5.30;4.70;;;;;;;15.99;76.75;100553.28;1793562;78;21565;-78
2022/06/06 01:20:13;;;;;;;5.05;4.70;;;;;;;15.98;77.50;100551.12;1777020;78;21104;-76
2022/06/06 01:23:07;;;;;;;7.65;5.92;;;;;;;15.90;78.03;100552.22;1798157;78;20962;-76
2022/06/06 01:26:04;;;;;;;6.58;5.80;;;;;;;15.85;78.58;100553.38;1792846;79;21026;-76
2022/06/06 01:29:13;;;;;;;6.20;5.50;;;;;;;15.80;78.90;100556.42;1796896;79;21032;-76
2022/06/06 01:31:58;;;;;;;9.78;5.70;;;;;;;15.69;79.42;100549.34;1794735;79;21037;-74
2022/06/06 01:34:36;;;;;;;6.70;6.10;;;;;;;15.58;79.87;100549.50;1794960;78;21061;-75
2022/06/06 01:37:03;;;;;;;5.78;5.30;;;;;;;15.53;80.50;100549.84;1786888;79;21144;-77
2022/06/06 01:39:32;;;;;;;5.87;5.33;;;;;;;15.47;80.95;100542.66;1798449;79;21086;-78
2022/06/06 01:42:19;;;;;;;5.53;5.15;;;;;;;15.43;80.82;100546.81;1802351;79;21036;-75
2022/06/06 01:44:52;;;;;;;6.15;5.75;;;;;;;15.37;80.73;100544.48;1789628;78;20991;-76
2022/06/06 01:47:35;;;;;;;7.03;6.40;;;;;;;15.29;81.17;100544.17;1796823;78;21087;-76
2022/06/06 01:50:04;;;;;;;6.33;5.92;;;;;;;15.23;81.40;100558.47;1792365;78;21241;-75
2022/06/06 01:52:51;;;;;;;7.12;6.55;;;;;;;15.14;81.65;100547.66;1801792;78;21170;-77
2022/06/06 01:55:18;;;;;;;8.10;7.00;;;;;;;15.11;81.98;100561.00;1801227;77;21081;-75
2022/06/06 01:57:47;;;;;;;5.78;5.37;;;;;;;15.08;82.38;100557.39;1827839;77;21025;-75
2022/06/06 02:00:16;;;;;;;7.22;6.55;;;;;;;15.06;82.63;100558.65;1816773;77;21130;-78
2022/06/06 02:02:43;;;;;;;6.60;6.03;;;;;;;15.05;82.76;100561.86;1798301;78;21088;-78
2022/06/06 02:05:13;;;;;;;7.12;6.42;;;;;;;15.03;82.89;100559.91;1800583;78;21143;-74
2022/06/06 02:07:42;;;;;;;6.08;5.67;;;;;;;15.06;82.99;100565.36;1777255;78;21107;-75
2022/06/06 02:10:12;;;;;;;6.62;5.70;;;;;;;15.09;83.10;100564.95;1798244;78;20991;-75
2022/06/06 02:12:41;;;;;;;8.25;6.12;;;;;;;15.12;83.14;100566.66;1797676;78;21001;-76
2022/06/06 02:15:12;;;;;;;6.95;6.35;;;;;;;15.17;82.75;100570.06;1798985;78;21121;-75
2022/06/06 02:17:39;;;;;;;5.90;5.55;;;;;;;15.18;82.61;100567.17;1794287;78;21109;-75
2022/06/06 02:20:08;;;;;;;6.62;6.08;;;;;;;15.36;83.32;100569.14;1795553;79;21049;-73
2022/06/06 02:22:35;;;;;;;7.72;5.62;;;;;;;15.67;82.79;100569.39;1807830;78;21013;-74
2022/06/06 02:25:03;;;;;;;5.70;5.28;;;;;;;16.04;82.07;100567.72;1822220;77;21131;-75
2022/06/06 02:27:29;;;;;;;4.90;4.60;;;;;;;16.43;80.17;100564.39;1829635;77;21517;-76
2022/06/06 02:29:56;;;;;;;6.08;5.60;;;;;;;16.84;78.68;100571.55;1819002;77;22658;-76
2022/06/06 02:32:23;;;;;;;5.53;5.03;;;;;;;17.62;74.82;100573.48;1812277;77;20997;-76
2022/06/06 02:34:50;;;;;;;6.05;5.45;;;;;;;17.62;74.82;100573.48;1793585;78;21106;-75
2022/06/06 02:37:16;;;;;;;5.55;5.05;;;;;;;17.96;72.67;100571.14;1801338;78;21070;-75
2022/06/06 02:39:43;;;;;;;5.28;4.92;;;;;;;18.27;71.68;100570.02;1799816;78;21032;-75
2022/06/06 02:42:10;;;;;;;4.97;4.63;;;;;;;18.65;70.17;100578.71;1802000;78;21456;-77
2022/06/06 02:44:37;;;;;;;4.90;4.42;;;;;;;18.81;68.04;100538.03;1796618;78;21137;-77
2022/06/06 02:47:04;;;;;;;10.60;5.17;;;;;;;19.40;66.70;100579.22;1801072;78;21425;-76
2022/06/06 02:49:33;;;;;;;4.85;4.45;;;;;;;19.69;65.05;100576.49;1793450;78;21179;-76
2022/06/06 02:52:04;;;;;;;6.87;4.78;;;;;;;19.99;63.88;100578.12;1789359;78;21583;-76
2022/06/06 02:54:31;;;;;;;4.67;4.37;;;;;;;20.35;62.37;100566.52;1799992;78;21549;-75
2022/06/06 02:56:59;;;;;;;4.25;4.05;;;;;;;20.75;61.10;100565.48;1811181;77;20994;-75
2022/06/06 02:59:28;;;;;;;4.95;3.58;;;;;;;21.15;59.68;100573.33;1796638;79;21053;-75
2022/06/06 03:01:55;;;;;;;4.55;4.15;;;;;;;21.51;57.22;100575.63;1760025;80;20982;-75
2022/06/06 03:04:21;;;;;;;4.20;3.90;;;;;;;21.57;56.61;100575.44;1774796;80;21005;-74
2022/06/06 03:07:29;;;;;;;3.65;3.50;;;;;;;21.52;56.86;100569.95;1775037;80;21516;-74
2022/06/06 03:10:34;;;;;;;3.75;3.35;;;;;;;21.53;56.66;100566.17;1767811;80;21001;-75
2022/06/06 03:13:26;;;;;;;4.45;4.12;;;;;;;21.54;56.49;100577.29;1767649;80;21012;-74
2022/06/06 03:22:31;;;;;;;3.80;3.50;;;;;;;21.78;54.90;100577.80;1765642;79;21457;-74
2022/06/06 03:25:28;;;;;;;3.10;3.00;;;;;;;21.99;53.42;100582.61;1796513;79;21520;-75
2022/06/06 03:28:09;;;;;;;3.30;3.10;;;;;;;22.23;52.42;100581.17;1769030;80;20977;-74
2022/06/06 03:30:53;;;;;;;3.27;3.02;;;;;;;22.62;51.02;100583.64;1796430;79;21577;-75
2022/06/06 03:33:31;;;;;;;5.22;2.80;;;;;;;22.87;50.20;100578.88;1795334;79;21501;-74
2022/06/06 03:36:21;;;;;;;1.98;1.90;;;;;;;23.14;48.87;100579.29;1805535;79;21009;-74
2022/06/06 03:39:08;;;;;;;2.08;2.05;;;;;;;23.28;47.53;100585.87;1802024;79;21121;-76
2022/06/06 03:41:55;;;;;;;2.40;2.20;;;;;;;23.32;46.89;100580.72;1802179;79;21070;-75
2022/06/06 03:44:57;;;;;;;2.20;2.10;;;;;;;23.43;46.19;100582.39;1799892;79;21544;-75
2022/06/06 03:48:00;;;;;;;2.70;2.50;;;;;;;23.48;45.76;100582.38;1807303;78;21077;-74
2022/06/06 03:50:35;;;;;;;2.95;2.02;;;;;;;23.70;45.18;100580.80;1801662;78;21502;-74
2022/06/06 03:53:36;;;;;;;1.95;1.77;;;;;;;24.00;43.36;100587.39;1794038;79;21025;-74
2022/06/06 03:56:14;;;;;;;4.55;4.28;;;;;;;24.15;43.24;100584.38;1805037;78;21095;-74
2022/06/06 03:58:42;;;;;;;2.77;2.12;;;;;;;24.25;42.70;100581.66;1799603;78;21016;-75
2022/06/06 04:01:13;;;;;;;1.45;1.35;;;;;;;24.36;42.42;100574.30;1799106;78;21521;-75
2022/06/06 04:03:42;;;;;;;1.52;1.42;;;;;;;24.62;40.20;100569.09;1792468;79;21095;-80
2022/06/06 04:06:10;;;;;;;1.62;1.45;;;;;;;24.87;40.20;100582.38;1800784;78;21065;-79
2022/06/06 04:08:37;;;;;;;1.90;1.22;;;;;;;25.04;39.00;100584.21;1797683;79;21207;-78
2022/06/06 04:11:33;;;;;;;2.80;1.60;;;;;;;25.18;38.72;100584.41;1798333;78;21088;-78
2022/06/06 04:14:11;;;;;;;1.30;1.02;;;;;;;25.49;38.82;100582.94;1764057;80;21120;-77
2022/06/06 04:17:01;;;;;;;2.08;1.35;;;;;;;26.04;37.17;100580.11;1758966;80;21502;-77
2022/06/06 04:19:54;;;;;;;1.47;1.47;;;;;;;26.18;36.80;100578.35;1763999;80;21060;-78
2022/06/06 04:22:47;;;;;;;1.55;1.47;;;;;;;26.34;36.17;100587.77;1741303;79;21086;-80
2022/06/06 04:25:44;;;;;;;3.17;1.22;;;;;;;26.42;35.83;100589.30;1790907;79;21513;-77
2022/06/06 04:28:47;;;;;;;1.55;1.10;;;;;;;26.49;35.94;100590.34;1786109;79;21021;-73
2022/06/06 04:31:24;;;;;;;1.45;0.78;;;;;;;26.65;34.97;100588.84;1794121;79;21138;-72
2022/06/06 04:34:22;;;;;;;3.35;0.80;;;;;;;26.69;34.34;100583.89;1807579;76;20970;-72
2022/06/06 04:37:16;;;;;;;0.95;0.68;;;;;;;26.64;34.36;100592.70;1871287;76;21619;-77
2022/06/06 04:40:14;;;;;;;1.10;1.10;;;;;;;26.58;34.25;100587.25;1870306;76;21465;-77
2022/06/06 04:42:58;;;;;;;1.45;1.22;;;;;;;26.31;34.65;100591.06;1858404;76;21013;-72
2022/06/06 04:45:47;;;;;;;3.65;0.98;;;;;;;26.21;35.00;100594.70;1853649;76;21041;-73
2022/06/06 04:48:14;;;;;;;4.60;1.00;;;;;;;26.27;35.09;100588.09;1862893;76;20969;-77
2022/06/06 04:50:44;;;;;;;0.85;0.85;;;;;;;25.89;35.41;100592.49;1873586;76;21088;-71
2022/06/06 04:53:15;;;;;;;0.80;0.80;;;;;;;25.45;36.18;100600.41;1874156;76;20989;-79
2022/06/06 04:55:45;;;;;;;1.25;1.15;;;;;;;25.23;36.52;100603.52;1875651;76;21545;-73
2022/06/06 04:58:14;;;;;;;1.20;1.20;;;;;;;25.08;36.99;100597.30;1872023;76;21006;-70
2022/06/06 05:00:42;;;;;;;3.05;0.82;;;;;;;25.17;36.76;100593.70;1850107;76;21028;-70
2022/06/06 05:03:09;;;;;;;4.87;1.10;;;;;;;25.50;36.99;100594.09;1835279;76;20984;-72
2022/06/06 05:06:14;;;;;;;1.95;1.05;;;;;;;25.57;36.17;100595.16;1842484;77;21055;-74
2022/06/06 05:09:14;;;;;;;1.00;1.00;;;;;;;25.24;36.80;100601.59;1842372;76;21048;-71
2022/06/06 05:11:52;;;;;;;1.55;1.45;;;;;;;24.81;37.59;100593.03;1829253;76;21027;-71
2022/06/06 05:14:36;;;;;;;1.00;1.00;;;;;;;24.64;38.31;100594.16;1843461;77;21514;-72
2022/06/06 05:17:30;;;;;;;2.58;1.05;;;;;;;24.55;38.63;100599.09;1839645;77;21567;-72
2022/06/06 05:20:22;;;;;;;1.25;1.10;;;;;;;24.35;39.16;100596.61;1843236;77;21063;-71
2022/06/06 05:23:20;;;;;;;1.32;1.32;;;;;;;24.26;39.68;100605.91;1838596;76;21033;-69
2022/06/06 05:26:01;;;;;;;1.27;1.10;;;;;;;24.42;39.53;100603.16;1851557;76;21080;-71
2022/06/06 05:28:51;;;;;;;2.90;1.15;;;;;;;24.65;39.55;100601.78;1867936;76;21042;-72
2022/06/06 05:31:53;;;;;;;1.75;1.67;;;;;;;25.05;39.06;100604.11;1875675;76;21057;-74
2022/06/06 05:34:25;;;;;;;2.67;1.67;;;;;;;25.56;38.37;100604.44;1839643;76;21013;-72
2022/06/06 05:36:56;;;;;;;1.22;1.22;;;;;;;25.86;37.15;100609.43;1843290;76;21592;-77
2022/06/06 05:39:51;;;;;;;1.50;1.40;;;;;;;25.84;37.58;100616.53;1839746;76;20962;-71
2022/06/06 05:42:43;;;;;;;2.08;1.55;;;;;;;25.68;37.07;100611.74;1788205;79;21007;-70
2022/06/06 05:45:37;;;;;;;1.80;1.75;;;;;;;25.58;37.54;100613.99;1776256;79;21009;-83
2022/06/06 05:48:46;;;;;;;1.60;1.50;;;;;;;25.50;37.83;100617.30;1777968;79;21338;-75
2022/06/06 05:51:33;;;;;;;1.57;1.47;;;;;;;25.66;37.36;100622.12;1769636;79;21848;-71
2022/06/06 05:54:11;;;;;;;;;;;;;;;25.72;37.13;100618.27;1768911;81;21087;-70
2022/06/06 05:57:20;;;;;;;1.67;1.15;;;;;;;25.63;37.11;100614.50;1771067;80;20094;-71
2022/06/06 06:00:16;;;;;;;1.90;1.17;;;;;;;25.67;37.23;100618.28;1784001;80;21115;-70
2022/06/06 06:03:12;;;;;;;1.82;1.67;;;;;;;25.95;37.02;100614.59;1744591;81;21601;-70
2022/06/06 06:05:53;;;;;;;2.75;1.15;;;;;;;26.20;36.74;100619.02;1761893;80;21048;-70
2022/06/06 06:09:00;;;;;;;1.25;0.98;;;;;;;26.29;36.02;100619.23;1812922;78;21008;-72
2022/06/06 06:11:55;;;;;;;7.47;0.70;;;;;;;26.03;36.56;100616.17;1809999;78;21426;-70
2022/06/06 06:14:50;;;;;;;3.70;1.17;;;;;;;25.91;36.28;100621.13;1803765;77;21128;-72
2022/06/06 06:17:21;;;;;;;0.93;0.93;;;;;;;25.97;36.65;100624.11;1775972;79;21529;-73
2022/06/06 06:20:02;;;;;;;1.05;0.72;;;;;;;26.24;36.03;100622.84;1804232;79;21529;-70
2022/06/06 06:22:36;;;;;;;0.90;0.90;;;;;;;26.06;35.80;100620.23;1810650;77;21749;-69
2022/06/06 06:25:05;;;;;;;0.75;0.68;;;;;;;25.87;35.71;100617.91;1769447;79;21025;-70
2022/06/06 06:27:33;;;;;;;0.88;0.60;;;;;;;25.79;36.12;100628.32;1790291;78;21101;-69
2022/06/06 06:30:07;;;;;;;0.90;0.90;;;;;;;25.72;34.82;100628.38;1789060;78;21082;-70
2022/06/06 06:33:06;;;;;;;1.05;0.93;;;;;;;25.91;35.65;100622.50;1815494;77;21064;-70
2022/06/06 06:35:50;;;;;;;0.60;0.60;;;;;;;26.16;35.75;100622.91;1803187;77;21152;-69
2022/06/06 06:38:53;;;;;;;0.68;0.65;;;;;;;26.00;35.38;100620.83;1802415;78;21197;-70
2022/06/06 06:41:46;;;;;;;1.07;0.60;;;;;;;26.05;35.30;100624.61;1806362;78;21528;-70
2022/06/06 06:44:34;;;;;;;0.70;0.70;;;;;;;25.98;35.24;100633.14;1812117;78;21625;-70
2022/06/06 06:47:10;;;;;;;2.05;0.88;;;;;;;25.86;34.77;100631.27;1806472;78;21331;-71
2022/06/06 06:49:45;;;;;;;0.75;0.50;;;;;;;25.90;35.99;100635.91;1814446;77;21086;-71
2022/06/06 06:52:39;;;;;;;0.60;0.40;;;;;;;26.26;35.16;100624.73;1778774;79;21021;-70
2022/06/06 06:55:23;;;;;;;1.65;0.50;;;;;;;26.55;35.48;100629.38;1807416;77;21578;-69
2022/06/06 06:58:44;;;;;;;0.95;0.57;;;;;;;26.75;33.48;100631.94;1810232;78;22170;-71
2022/06/06 07:01:22;;;;;;;0.60;0.60;;;;;;;26.68;32.49;100630.09;1807629;78;21125;-65
2022/06/06 07:10:33;;;;;;;2.25;0.50;;;;;;;26.95;32.40;100627.34;1811672;78;21021;-66
2022/06/06 07:13:22;;;;;;;2.02;0.30;;;;;;;26.66;31.11;100636.41;1805497;78;21132;-67
2022/06/06 07:15:57;;;;;;;4.25;0.30;;;;;;;25.97;31.93;100620.02;1809579;78;21573;-67
2022/06/06 07:18:29;;;;;;;1.65;0.30;;;;;;;25.60;31.34;100633.63;1814133;77;21053;-67
2022/06/06 07:20:57;;;;;;;1.92;0.35;;;;;;;25.43;31.69;100627.17;1802508;77;21089;-66
2022/06/06 07:23:28;;;;;;;4.45;0.40;;;;;;;25.29;32.86;100633.52;1816463;78;21094;-67
2022/06/06 07:25:57;;;;;;;1.07;0.30;;;;;;;24.90;34.00;100628.14;1808535;77;21877;-65
2022/06/06 07:28:25;;;;;;;1.95;0.33;;;;;;;24.61;33.56;100635.58;1812167;77;21107;-66
2022/06/06 07:31:28;;;;;;;0.40;0.20;;;;;;;24.55;34.35;100633.96;1801746;77;21106;-66
2022/06/06 07:34:38;;;;;;;3.47;0.55;;;;;;;24.71;34.25;100635.30;1801316;77;21068;-66
2022/06/06 07:37:36;;;;;;;0.50;0.50;;;;;;;24.90;34.36;100636.88;1798295;77;20989;-66
2022/06/06 07:40:50;;;;;;;0.47;0.40;;;;;;;25.07;33.54;100638.73;1802270;78;21552;-66
2022/06/06 07:43:37;;;;;;;1.20;0.30;;;;;;;24.89;33.21;100637.99;1804370;78;21387;-66
2022/06/06 07:46:50;;;;;;;0.40;0.37;;;;;;;24.52;33.95;100634.50;1810148;78;21092;-67
2022/06/06 07:49:24;;;;;;;0.35;0.30;;;;;;;24.25;34.03;100638.86;1815170;78;21069;-68
2022/06/06 07:51:59;;;;;;;0.40;0.33;;;;;;;24.02;34.61;100637.49;1803632;79;21174;-67
2022/06/06 07:54:31;;;;;;;0.42;0.30;;;;;;;24.00;34.48;100651.37;1808629;77;21041;-68
2022/06/06 07:57:15;;;;;;;1.27;0.20;;;;;;;23.98;33.97;100651.34;1807931;78;21060;-68
2022/06/06 08:00:07;;;;;;;0.68;0.40;;;;;;;23.95;33.53;100659.52;1744130;79;21086;-66
2022/06/06 08:03:02;;;;;;;0.30;0.30;;;;;;;23.86;33.99;100655.14;1808880;78;22139;-65
2022/06/06 08:07:24;;;;;;;0.28;0.28;;;;;;;23.85;34.95;100657.60;1835209;76;23367;-66
2022/06/06 08:10:20;;;;;;;1.22;0.10;;;;;;;23.82;34.33;100649.97;1780400;78;21120;-66
2022/06/06 08:13:10;;;;;;;0.65;0.30;;;;;;;23.78;34.38;100639.31;1742805;79;21001;-66
2022/06/06 08:16:11;;;;;;;1.55;0.55;;;;;;;23.82;34.56;100630.91;1722810;81;21152;-67
2022/06/06 08:19:09;;;;;;;0.42;0.23;;;;;;;23.97;34.47;100636.92;1725500;81;21548;-66
2022/06/06 08:21:41;;;;;;;2.70;0.40;;;;;;;23.98;34.50;100635.02;1730158;81;21120;-67
2022/06/06 08:24:31;;;;;;;0.78;0.30;;;;;;;23.93;34.48;100634.48;1725434;80;21877;-65
2022/06/06 08:27:01;;;;;;;0.85;0.30;;;;;;;23.92;34.55;100626.58;1727751;81;21044;-66
2022/06/06 08:29:30;;;;;;;0.50;0.35;;;;;;;23.94;34.60;100632.04;1727390;82;21505;-66
2022/06/06 08:31:56;;;;;;;5.50;0.40;;;;;;;23.93;34.21;100629.58;1725738;81;22286;-66
2022/06/06 08:34:22;;;;;;;1.00;0.40;;;;;;;23.81;34.98;100627.09;1705924;81;21052;-66
2022/06/06 08:37:21;;;;;;;1.40;0.45;;;;;;;23.72;35.48;100634.95;1687849;84;21157;-67
2022/06/06 08:39:57;;;;;;;1.67;0.35;;;;;;;23.72;35.27;100640.40;1677725;84;21115;-68
2022/06/06 08:42:58;;;;;;;1.65;0.50;;;;;;;23.75;34.98;100642.56;1685565;83;21170;-68
2022/06/06 08:46:12;;;;;;;0.50;0.20;;;;;;;23.76;34.68;100633.33;1675263;84;21096;-66
2022/06/06 08:49:10;;;;;;;0.30;0.28;;;;;;;23.79;34.91;100628.75;1667317;84;21041;-67
2022/06/06 08:51:52;;;;;;;1.80;0.20;;;;;;;23.85;35.14;100620.86;1666327;84;21116;-67
2022/06/06 08:54:40;;;;;;;0.95;0.30;;;;;;;23.96;34.60;100620.85;1636593;85;21123;-65
2022/06/06 08:57:21;;;;;;;2.05;0.20;;;;;;;24.05;33.86;100615.14;1651807;85;21009;-66
2022/06/06 09:00:11;;;;;;;0.42;0.20;;;;;;;24.15;34.07;100623.86;1647643;84;21034;-67
2022/06/06 09:03:32;;;;;;;0.20;0.10;;;;;;;24.27;34.08;100625.22;1615494;84;21641;-65
2022/06/06 09:06:41;;;;;;;0.60;0.40;;;;;;;24.27;33.19;100628.50;1675707;84;21108;-66
2022/06/06 09:09:39;;;;;;;0.50;0.30;;;;;;;24.02;34.06;100620.60;1647538;85;21072;-66
2022/06/06 09:12:39;;;;;;;1.25;0.10;;;;;;;23.88;33.95;100612.16;1652369;85;21585;-67
2022/06/06 09:15:19;;;;;;;0.30;0.20;;;;;;;23.89;34.43;100608.89;1649362;85;21637;-65
2022/06/06 09:18:09;;;;;;;3.83;0.60;;;;;;;23.95;33.29;100611.88;1662771;84;21114;-66
2022/06/06 09:21:09;;;;;;;0.80;0.13;;;;;;;24.02;33.14;100619.80;1662282;84;21196;-65
2022/06/06 09:23:56;;;;;;;0.50;0.20;;;;;;;24.03;33.28;100619.50;1652249;85;21121;-64
2022/06/06 09:26:46;;;;;;;0.72;0.30;;;;;;;24.08;33.31;100619.51;1703314;83;21107;-64
2022/06/06 09:29:54;;;;;;;0.93;0.25;;;;;;;24.15;33.74;100621.97;1675588;84;21091;-68
2022/06/06 09:32:26;;;;;;;0.40;0.40;;;;;;;24.27;33.11;100622.50;1684890;82;21644;-67
2022/06/06 09:35:31;;;;;;;0.35;0.20;;;;;;;24.33;32.96;100618.42;1668838;81;21032;-66
2022/06/06 09:38:35;;;;;;;0.55;0.20;;;;;;;24.35;33.45;100607.52;1617015;87;21655;-67
2022/06/06 09:41:40;;;;;;;0.40;0.20;;;;;;;24.46;33.58;100609.13;1617275;86;21598;-66
2022/06/06 09:44:25;;;;;;;0.20;0.10;;;;;;;24.49;32.54;100610.52;1627798;85;21726;-67
2022/06/06 09:47:17;;;;;;;0.85;0.23;;;;;;;24.41;32.78;100620.06;1632822;85;21600;-68
2022/06/06 09:50:03;;;;;;;0.57;0.20;;;;;;;24.34;32.52;100605.89;1661117;84;22187;-66
2022/06/06 09:53:13;;;;;;;3.85;0.30;;;;;;;24.20;33.45;100615.14;1640991;85;21232;-67
2022/06/06 09:59:52;;;;;;;1.22;0.35;;;;;;;23.81;34.33;100607.52;1666609;83;21027;-67
2022/06/06 10:02:50;;;;;;;0.55;0.33;;;;;;;23.83;35.05;100598.54;1679348;83;21135;-67
2022/06/06 10:05:45;;;;;;;2.50;0.62;;;;;;;23.89;34.88;100604.80;1655842;84;21053;-67
2022/06/06 10:08:57;;;;;;;0.30;0.20;;;;;;;23.95;34.90;100611.06;1642614;85;22308;-68
2022/06/06 10:11:47;;;;;;;1.02;0.25;;;;;;;24.02;35.00;100601.55;1667261;83;21108;-68
2022/06/06 10:14:39;;;;;;;0.70;0.30;;;;;;;24.14;35.15;100606.71;1622945;85;21091;-69
2022/06/06 10:17:20;;;;;;;0.50;0.40;;;;;;;24.24;34.89;100606.73;1626528;85;21057;-69
2022/06/06 10:20:12;;;;;;;0.57;0.20;;;;;;;24.23;34.35;100600.99;1649895;85;21136;-68
2022/06/06 10:23:27;;;;;;;2.05;0.40;;;;;;;24.23;34.23;100601.55;1639519;85;21047;-71
2022/06/06 10:26:13;;;;;;;0.75;0.40;;;;;;;24.26;34.50;100606.42;1640328;86;21062;-68
2022/06/06 10:29:06;;;;;;;0.40;0.40;;;;;;;24.26;33.83;100605.91;1641803;85;21068;-67
2022/06/06 10:31:41;;;;;;;0.28;0.20;;;;;;;24.20;34.33;100593.36;1622696;86;21102;-75
2022/06/06 10:34:51;;;;;;;2.50;0.30;;;;;;;24.10;34.15;100604.27;1638263;85;21065;-86
2022/06/06 10:37:48;;;;;;;0.42;0.23;;;;;;;24.05;34.91;100606.98;1640069;85;21088;-73
2022/06/06 10:40:50;;;;;;;0.88;0.28;;;;;;;24.10;34.12;100597.45;1565044;90;21172;-73
2022/06/06 10:44:01;;;;;;;0.30;0.20;;;;;;;24.18;34.77;100587.37;1636475;85;21485;-72
2022/06/06 10:46:52;;;;;;;0.30;0.20;;;;;;;24.21;34.11;100588.19;1660929;84;21158;-72
2022/06/06 10:49:53;;;;;;;3.00;0.55;;;;;;;24.21;33.79;100588.19;1645867;85;22338;-71
2022/06/06 10:52:48;;;;;;;3.05;0.42;;;;;;;24.26;34.65;100577.30;1637827;85;21108;-71
2022/06/06 10:55:29;;;;;;;0.70;0.70;;;;;;;24.28;34.44;100577.04;1661922;84;21064;-72
2022/06/06 10:58:29;;;;;;;0.60;0.40;;;;;;;24.30;34.27;100569.41;1640726;86;21150;-72
2022/06/06 11:01:15;;;;;;;1.77;0.20;;;;;;;24.28;33.63;100571.59;1664393;85;20955;-72
2022/06/06 11:04:22;;;;;;;0.37;0.37;;;;;;;24.33;33.40;100572.12;1672539;84;21033;-71
2022/06/06 11:07:06;;;;;;;0.20;0.20;;;;;;;24.38;34.07;100568.03;1672126;84;21151;-70
2022/06/06 11:10:02;;;;;;;0.30;0.20;;;;;;;24.31;33.02;100578.38;1648193;84;21026;-70
2022/06/06 11:12:58;;;;;;;0.40;0.35;;;;;;;24.18;33.21;100567.50;1644060;85;21091;-72
2022/06/06 11:15:33;;;;;;;2.42;0.30;;;;;;;24.14;33.50;100563.14;1664930;85;21613;-70
2022/06/06 11:18:27;;;;;;;0.40;0.20;;;;;;;24.24;33.83;100552.78;1636151;85;21050;-70
2022/06/06 11:21:16;;;;;;;0.55;0.30;;;;;;;24.36;33.53;100551.15;1664189;85;21650;-74
2022/06/06 11:24:19;;;;;;;0.85;0.37;;;;;;;24.49;33.38;100556.83;1658168;85;21108;-70
2022/06/06 11:26:53;;;;;;;2.17;0.20;;;;;;;24.52;33.47;100554.12;1650311;85;21023;-71
2022/06/06 11:29:43;;;;;;;0.62;0.30;;;;;;;24.49;32.32;100566.92;1656658;85;21041;-72
2022/06/06 11:32:52;;;;;;;3.10;0.20;;;;;;;24.38;31.67;100565.30;1655071;85;21165;-71
2022/06/06 11:35:58;;;;;;;1.55;0.23;;;;;;;24.23;31.53;100558.77;1645502;83;21105;-70
2022/06/06 11:39:03;;;;;;;1.67;0.30;;;;;;;24.12;31.75;100552.27;1624596;87;21093;-72
2022/06/06 11:41:52;;;;;;;0.40;0.20;;;;;;;24.09;32.39;100556.33;1607562;87;21089;-71
2022/06/06 11:44:39;;;;;;;2.25;0.28;;;;;;;24.07;32.27;100551.70;1578028;89;21054;-73
2022/06/06 11:47:48;;;;;;;0.80;0.45;;;;;;;24.16;32.87;100543.25;1644447;86;21075;-74
2022/06/06 11:50:55;;;;;;;1.60;0.20;;;;;;;24.20;33.70;100532.08;1644968;86;21042;-73
2022/06/06 11:54:08;;;;;;;1.62;0.30;;;;;;;24.25;33.74;100527.19;1643670;86;21376;-75
2022/06/06 11:57:02;;;;;;;1.62;0.30;;;;;;;24.32;33.68;100532.33;1677986;83;21069;-74
2022/06/06 11:59:49;;;;;;;4.15;0.40;;;;;;;24.33;34.06;100529.89;1656153;84;21172;-77
2022/06/06 12:02:33;;;;;;;1.40;0.23;;;;;;;24.35;33.60;100533.96;1697777;83;21569;-79
2022/06/06 12:05:34;;;;;;;1.80;0.25;;;;;;;24.38;33.40;100533.98;1703436;83;21093;-81
2022/06/06 12:08:42;;;;;;;1.00;0.33;;;;;;;24.41;33.38;100532.88;1703274;83;21033;-79
2022/06/06 12:11:35;;;;;;;;;;;;;;;24.40;33.25;100532.59;1700236;83;21057;-78
2022/06/06 12:14:33;;;;;;;1.77;0.30;;;;;;;24.42;32.68;100529.05;1683242;84;20487;-79
2022/06/06 12:17:11;;;;;;;5.22;0.30;;;;;;;24.35;33.21;100524.98;1682265;84;21047;-80
2022/06/06 12:19:55;;;;;;;2.33;0.20;;;;;;;24.32;32.47;100539.14;1677586;84;21117;-81
2022/06/06 12:22:38;;;;;;;0.72;0.30;;;;;;;24.32;32.33;100529.09;1654218;82;21039;-78
2022/06/06 12:25:28;;;;;;;1.32;0.25;;;;;;;24.40;31.89;100529.06;1662023;84;21130;-79
2022/06/06 12:28:26;;;;;;;3.15;0.17;;;;;;;24.45;31.69;100529.06;1683073;84;21593;-79
2022/06/06 12:31:13;;;;;;;0.45;0.20;;;;;;;24.54;31.84;100531.49;1679958;84;21108;-80
2022/06/06 12:33:49;;;;;;;0.40;0.10;;;;;;;24.61;31.98;100525.77;1675982;83;21135;-82
2022/06/06 12:36:45;;;;;;;0.23;0.13;;;;;;;24.62;32.03;100520.05;1683593;84;21366;-81
2022/06/06 12:39:24;;;;;;;2.22;0.20;;;;;;;24.65;32.01;100526.84;1674467;84;21237;-81
2022/06/06 12:42:05;;;;;;;0.40;0.30;;;;;;;24.66;31.89;100511.58;1647222;84;21557;-80
2022/06/06 12:45:14;;;;;;;1.95;0.17;;;;;;;24.63;32.32;100512.12;1679697;84;20978;-84
2022/06/06 12:48:23;;;;;;;2.58;0.50;;;;;;;24.59;32.17;100506.16;1670027;84;21101;-83
2022/06/06 12:51:29;;;;;;;1.45;0.50;;;;;;;24.58;32.29;100514.05;1679550;84;21065;-80
2022/06/06 12:57:58;;;;;;;0.55;0.20;;;;;;;24.57;32.42;100510.52;1658874;84;21120;-82
2022/06/06 13:04:00;;;;;;;2.67;0.20;;;;;;;24.54;32.75;100516.51;1671180;84;21116;-82
2022/06/06 13:07:22;;;;;;;0.85;0.15;;;;;;;24.57;32.48;100506.42;1649184;85;21096;-82
2022/06/06 13:10:30;;;;;;;0.30;0.20;;;;;;;24.59;32.38;100506.96;1643836;85;21108;-83
2022/06/06 13:13:11;;;;;;;0.20;0.10;;;;;;;24.57;32.25;100500.98;1673846;84;22144;-83
2022/06/06 13:16:11;;;;;;;1.02;0.20;;;;;;;24.55;32.41;100501.80;1700194;83;21086;-81
2022/06/06 13:19:05;;;;;;;0.75;0.20;;;;;;;24.58;32.30;100499.06;1698362;83;21140;-82
2022/06/06 13:22:11;;;;;;;1.05;0.23;;;;;;;24.59;31.76;100500.70;1652184;85;21630;-82